Terminal Aerodrome Forecast
Issued by NWS

Home | Current Version | Previous Version | Text Only | Print | Product List | Glossary On
Versions: 1 2 3 4 5 6 7 8 9 10 11 12 13 14
000
FTUS45 KABQ 032333
TAFGUP
TAF
KGUP 032333Z 0400/0424 02008KT P6SM FEW025
     FM040100 VRB04KT P6SM SKC
      TEMPO 0411/0415 SCT010=

USA.gov is the U.S. government's official web portal to all federal, state and local government web resources and services.